Viktor — D5KG3 — position and weather

sailwx.info

Track history (hours):
 
Tides and Currents Weather Stations Pressure Air Temp Water Temp Dewpoint Dewpoint Depression Visibility Wind Speed Wind Dir Waves Ship Positions

Viktor

Last reported at 2018-Jul-15 20:30 UTC. Time now 2018-Jul-15 20:49 UTC.
Position N 37°57' E 023°36'.

Length 140 m; draft 3.9 m.

Type: Cargo ship. MMSI: 636017300.

Date/timePositionNaut miles runAvg speedWind from/ knotsBaromVisibWave heightAir tempDewpointWater temp
2018-Jul-15 20:30N 37°57' E 023°36'0 0.0
2018-Jul-15 20:00N 37°57' E 023°36'0 0.0
2018-Jul-15 19:30N 37°57' E 023°36'0 0.0
2018-Jul-15 19:00N 37°57' E 023°36'0 0.0
2018-Jul-15 18:30N 37°57' E 023°36'0 0.0
2018-Jul-15 18:00N 37°57' E 023°36'0 0.0
2018-Jul-15 17:30N 37°57' E 023°36'0 0.0
2018-Jul-15 17:00N 37°57' E 023°36'0 0.0
2018-Jul-15 16:30N 37°57' E 023°36'0 0.0
2018-Jul-15 16:00N 37°57' E 023°36'0 0.0
2018-Jul-15 15:30N 37°57' E 023°36'0 0.0
2018-Jul-15 15:00N 37°57' E 023°36'0 0.0
2018-Jul-15 14:24N 37°57' E 023°36'0 0.0
2018-Jul-15 14:00N 37°57' E 023°36'0 0.0
2018-Jul-15 13:30N 37°57' E 023°36'0 0.0
2018-Jul-15 13:00N 37°57' E 023°36'0 0.0
2018-Jul-15 12:30N 37°57' E 023°36'0 0.0
2018-Jul-15 12:00N 37°57' E 023°36'0 0.0
2018-Jul-15 11:30N 37°57' E 023°36'0 0.0
2018-Jul-15 11:00N 37°57' E 023°36'0 0.0
2018-Jul-15 10:30N 37°57' E 023°36'0 0.0
2018-Jul-15 10:00N 37°57' E 023°36'0 0.0
2018-Jul-15 09:30N 37°57' E 023°36'0 0.0
2018-Jul-15 09:00N 37°57' E 023°36'0 0.0
2018-Jul-15 08:30N 37°57' E 023°36'0 0.0
2018-Jul-15 08:00N 37°57' E 023°36'0 0.0
2018-Jul-15 07:30N 37°57' E 023°36'0 0.0
2018-Jul-15 07:00N 37°57' E 023°36'0 0.0
2018-Jul-15 06:30N 37°57' E 023°36'0 0.0
2018-Jul-15 06:00N 37°57' E 023°36'0 0.0
2018-Jul-15 05:30N 37°57' E 023°36'0 0.0
2018-Jul-15 05:00N 37°57' E 023°36'0 0.0
2018-Jul-15 04:30N 37°57' E 023°36'0 0.0
2018-Jul-15 04:00N 37°57' E 023°36'0 0.0
2018-Jul-15 03:30N 37°57' E 023°36'0 0.0
2018-Jul-15 03:00N 37°57' E 023°36'0 0.0
2018-Jul-15 02:30N 37°57' E 023°36'0 0.0
2018-Jul-15 02:00N 37°57' E 023°36'0 0.0
2018-Jul-15 01:30N 37°57' E 023°36'0 0.0
2018-Jul-15 01:00N 37°57' E 023°36'0 0.0
2018-Jul-15 00:30N 37°57' E 023°36'0 0.0
2018-Jul-15 00:00N 37°57' E 023°36'0 0.0
2018-Jul-14 23:30N 37°57' E 023°36'0 0.0
2018-Jul-14 23:00N 37°57' E 023°36'0 0.0
2018-Jul-14 22:30N 37°57' E 023°36'0 0.0
2018-Jul-14 22:00N 37°57' E 023°36'0 0.0
2018-Jul-14 21:30N 37°57' E 023°36'0 0.0
2018-Jul-13 08:31N 37°57' E 023°36'0 0.0
2018-Jul-13 08:28N 37°57' E 023°36'0 0.0
2018-Jul-13 07:58N 37°57' E 023°36'0 0.0
2018-Jul-13 07:28N 37°57' E 023°36'0 0.1
2018-Jul-13 07:00N 37°57' E 023°36'1 1.2
2018-Jul-13 06:30N 37°56' E 023°36'1 2.7
2018-Jul-13 06:00N 37°55' E 023°36'0 0.5
2018-Jul-13 05:30N 37°55' E 023°36'2 3.1
2018-Jul-13 05:00N 37°54' E 023°38'3 5.7
2018-Jul-13 04:30N 37°51' E 023°39'3 5.9
2018-Jul-13 04:00N 37°48' E 023°41'3 5.9
2018-Jul-13 03:30N 37°46' E 023°42'3 6.8
2018-Jul-13 02:59N 37°43' E 023°44'3 6.6
2018-Jul-13 02:30N 37°40' E 023°47'3 6.9
2018-Jul-13 02:00N 37°39' E 023°51'8 6.9
2018-Jul-13 00:52N 37°37' E 024°00'3 6.8
2018-Jul-13 00:22N 37°37' E 024°05'151 5.0
2018-Jul-11 18:04N 39°46' E 025°48'1 7.6
2018-Jul-11 17:59N 39°46' E 025°48'5 7.7
2018-Jul-11 17:21N 39°51' E 025°50'  
2018-Jul-07 10:37N 39°38' E 025°46'  
Track history (hours):
 
Tides and Currents Weather Stations Pressure Air Temp Water Temp Dewpoint Dewpoint Depression Visibility Wind Speed Wind Dir Waves Ship Positions

Viktor

Last reported at 2018-Jul-15 20:30 UTC. Time now 2018-Jul-15 20:49 UTC.
Position N 37°57' E 023°36'.

Length 140 m; draft 3.9 m.

Type: Cargo ship. MMSI: 636017300.

Date/timePositionNaut miles runAvg speedWind from/ knotsBaromVisibWave heightAir tempDewpointWater temp
2018-Jul-15 20:30N 37°57' E 023°36'0 0.0
2018-Jul-15 20:00N 37°57' E 023°36'0 0.0
2018-Jul-15 19:30N 37°57' E 023°36'0 0.0
2018-Jul-15 19:00N 37°57' E 023°36'0 0.0
2018-Jul-15 18:30N 37°57' E 023°36'0 0.0
2018-Jul-15 18:00N 37°57' E 023°36'0 0.0
2018-Jul-15 17:30N 37°57' E 023°36'0 0.0
2018-Jul-15 17:00N 37°57' E 023°36'0 0.0
2018-Jul-15 16:30N 37°57' E 023°36'0 0.0
2018-Jul-15 16:00N 37°57' E 023°36'0 0.0
2018-Jul-15 15:30N 37°57' E 023°36'0 0.0
2018-Jul-15 15:00N 37°57' E 023°36'0 0.0
2018-Jul-15 14:24N 37°57' E 023°36'0 0.0
2018-Jul-15 14:00N 37°57' E 023°36'0 0.0
2018-Jul-15 13:30N 37°57' E 023°36'0 0.0
2018-Jul-15 13:00N 37°57' E 023°36'0 0.0
2018-Jul-15 12:30N 37°57' E 023°36'0 0.0
2018-Jul-15 12:00N 37°57' E 023°36'0 0.0
2018-Jul-15 11:30N 37°57' E 023°36'0 0.0
2018-Jul-15 11:00N 37°57' E 023°36'0 0.0
2018-Jul-15 10:30N 37°57' E 023°36'0 0.0
2018-Jul-15 10:00N 37°57' E 023°36'0 0.0
2018-Jul-15 09:30N 37°57' E 023°36'0 0.0
2018-Jul-15 09:00N 37°57' E 023°36'0 0.0
2018-Jul-15 08:30N 37°57' E 023°36'0 0.0
2018-Jul-15 08:00N 37°57' E 023°36'0 0.0
2018-Jul-15 07:30N 37°57' E 023°36'0 0.0
2018-Jul-15 07:00N 37°57' E 023°36'0 0.0
2018-Jul-15 06:30N 37°57' E 023°36'0 0.0
2018-Jul-15 06:00N 37°57' E 023°36'0 0.0
2018-Jul-15 05:30N 37°57' E 023°36'0 0.0
2018-Jul-15 05:00N 37°57' E 023°36'0 0.0
2018-Jul-15 04:30N 37°57' E 023°36'0 0.0
2018-Jul-15 04:00N 37°57' E 023°36'0 0.0
2018-Jul-15 03:30N 37°57' E 023°36'0 0.0
2018-Jul-15 03:00N 37°57' E 023°36'0 0.0
2018-Jul-15 02:30N 37°57' E 023°36'0 0.0
2018-Jul-15 02:00N 37°57' E 023°36'0 0.0
2018-Jul-15 01:30N 37°57' E 023°36'0 0.0
2018-Jul-15 01:00N 37°57' E 023°36'0 0.0
2018-Jul-15 00:30N 37°57' E 023°36'0 0.0
2018-Jul-15 00:00N 37°57' E 023°36'0 0.0
2018-Jul-14 23:30N 37°57' E 023°36'0 0.0
2018-Jul-14 23:00N 37°57' E 023°36'0 0.0
2018-Jul-14 22:30N 37°57' E 023°36'0 0.0
2018-Jul-14 22:00N 37°57' E 023°36'0 0.0
2018-Jul-14 21:30N 37°57' E 023°36'0 0.0
2018-Jul-13 08:31N 37°57' E 023°36'0 0.0
2018-Jul-13 08:28N 37°57' E 023°36'0 0.0
2018-Jul-13 07:58N 37°57' E 023°36'0 0.0
2018-Jul-13 07:28N 37°57' E 023°36'0 0.1
2018-Jul-13 07:00N 37°57' E 023°36'1 1.2
2018-Jul-13 06:30N 37°56' E 023°36'1 2.7
2018-Jul-13 06:00N 37°55' E 023°36'0 0.5
2018-Jul-13 05:30N 37°55' E 023°36'2 3.1
2018-Jul-13 05:00N 37°54' E 023°38'3 5.7
2018-Jul-13 04:30N 37°51' E 023°39'3 5.9
2018-Jul-13 04:00N 37°48' E 023°41'3 5.9
2018-Jul-13 03:30N 37°46' E 023°42'3 6.8
2018-Jul-13 02:59N 37°43' E 023°44'3 6.6
2018-Jul-13 02:30N 37°40' E 023°47'3 6.9
2018-Jul-13 02:00N 37°39' E 023°51'8 6.9
2018-Jul-13 00:52N 37°37' E 024°00'3 6.8
2018-Jul-13 00:22N 37°37' E 024°05'151 5.0
2018-Jul-11 18:04N 39°46' E 025°48'1 7.6
2018-Jul-11 17:59N 39°46' E 025°48'5 7.7
2018-Jul-11 17:21N 39°51' E 025°50'  
2018-Jul-07 10:37N 39°38' E 025°46'  

Dump ship's entire track history